createdAt,value
2023-04-14T00:00:10.230Z,99013.17
2023-04-14T00:03:01.634Z,99013.85
2023-04-14T00:05:31.162Z,99013.39
2023-04-14T00:08:02.801Z,99014.90
2023-04-14T00:10:31.421Z,99018.81
2023-04-14T00:13:01.464Z,99021.52
2023-04-14T00:15:34.773Z,99019.48
2023-04-14T00:18:05.404Z,99022.92
2023-04-14T00:20:33.758Z,99017.47
2023-04-14T00:23:02.019Z,99014.77
2023-04-14T00:25:30.813Z,99012.04
2023-04-14T00:27:58.738Z,99010.20
2023-04-14T00:30:31.202Z,99015.09
2023-04-14T00:33:01.466Z,99015.09
2023-04-14T00:35:31.981Z,99015.41
2023-04-14T00:38:00.342Z,99019.14
2023-04-14T00:40:31.512Z,99017.52
2023-04-14T00:43:02.127Z,99021.91
2023-04-14T00:45:30.497Z,99023.30
2023-04-14T00:47:58.531Z,99019.55
2023-04-14T00:50:26.954Z,99023.35
2023-04-14T00:52:55.292Z,99017.92
2023-04-14T00:55:23.291Z,99016.27
2023-04-14T00:57:51.574Z,99018.51
2023-04-14T01:00:19.886Z,99017.27
2023-04-14T01:02:49.165Z,99024.21
2023-04-14T01:05:20.712Z,99029.78
2023-04-14T01:07:48.863Z,99033.13
2023-04-14T01:10:16.816Z,99026.27
2023-04-14T01:13:07.312Z,99027.96
2023-04-14T01:15:39.527Z,99029.83
2023-04-14T01:18:22.274Z,99033.70
2023-04-14T01:20:52.983Z,99034.73
2023-04-14T01:23:20.818Z,99032.83
2023-04-14T01:26:06.502Z,99033.38
2023-04-14T01:28:44.111Z,99029.84
2023-04-14T01:31:16.732Z,99029.67
2023-04-14T01:33:46.253Z,99032.34
2023-04-14T01:36:17.101Z,99035.78
2023-04-14T01:38:45.908Z,99034.77
2023-04-14T01:41:16.981Z,99031.46
2023-04-14T01:43:45.647Z,99031.14
2023-04-14T01:46:14.601Z,99031.71
2023-04-14T01:48:43.107Z,99038.14
2023-04-14T01:51:11.777Z,99036.77
2023-04-14T01:53:41.494Z,99036.85
2023-04-14T01:56:09.470Z,99036.18
2023-04-14T01:58:37.852Z,99037.01
2023-04-14T02:01:08.181Z,99042.46
2023-04-14T02:03:37.089Z,99039.95
2023-04-14T02:06:06.778Z,99043.02
2023-04-14T02:08:36.426Z,99042.81
2023-04-14T02:11:04.460Z,99045.18
2023-04-14T02:13:42.418Z,99049.60
2023-04-14T02:16:10.882Z,99049.20
2023-04-14T02:18:39.377Z,99048.80
2023-04-14T02:21:10.915Z,99052.55
2023-04-14T02:23:40.400Z,99055.19
2023-04-14T02:26:18.944Z,99058.23
2023-04-14T02:28:49.627Z,99062.23
2023-04-14T02:31:21.543Z,99058.60
2023-04-14T02:33:52.353Z,99062.36
2023-04-14T02:36:22.697Z,99065.05
2023-04-14T02:39:04.798Z,99058.48
2023-04-14T02:41:33.117Z,99063.19
2023-04-14T02:44:37.975Z,99065.10
2023-04-14T02:47:07.859Z,99065.59
2023-04-14T02:49:41.629Z,99068.02
2023-04-14T02:52:10.799Z,99068.79
2023-04-14T02:54:42.658Z,99075.55
2023-04-14T02:57:10.818Z,99076.90
2023-04-14T02:59:40.799Z,99074.81
2023-04-14T03:02:12.351Z,99079.36
2023-04-14T03:04:43.110Z,99080.06
2023-04-14T03:07:18.167Z,99081.24
2023-04-14T03:09:49.318Z,99082.85
2023-04-14T03:12:29.714Z,99089.38
2023-04-14T03:14:58.942Z,99092.63
2023-04-14T03:17:27.645Z,99094.16
2023-04-14T03:19:57.666Z,99098.04
2023-04-14T03:22:28.271Z,99099.30
2023-04-14T03:25:00.834Z,99102.79
2023-04-14T03:27:31.813Z,99103.42
2023-04-14T03:30:01.861Z,99106.52
2023-04-14T03:32:36.152Z,99108.39
2023-04-14T03:35:05.159Z,99107.46
2023-04-14T03:37:33.824Z,99111.27
2023-04-14T03:40:06.108Z,99113.77
2023-04-14T03:42:35.867Z,99117.38
2023-04-14T03:45:04.445Z,99121.13
2023-04-14T03:47:35.941Z,99122.35
2023-04-14T03:50:04.909Z,99123.97
2023-04-14T03:52:34.483Z,99124.52
2023-04-14T03:55:06.492Z,99128.44
2023-04-14T03:57:38.404Z,99128.83
2023-04-14T04:00:09.134Z,99126.79
2023-04-14T04:03:04.965Z,99131.68
2023-04-14T04:05:33.597Z,99134.64
2023-04-14T04:08:04.799Z,99134.48
2023-04-14T04:10:33.790Z,99135.42
2023-04-14T04:13:02.730Z,99135.86
2023-04-14T04:15:36.474Z,99138.21
2023-04-14T04:18:04.865Z,99140.88
2023-04-14T04:20:33.027Z,99143.27
2023-04-14T04:23:01.962Z,99139.52
2023-04-14T04:25:33.091Z,99146.66
2023-04-14T04:28:06.059Z,99143.92
2023-04-14T04:30:37.530Z,99148.60
2023-04-14T04:33:06.470Z,99151.30
2023-04-14T04:35:34.961Z,99151.40
2023-04-14T04:38:05.906Z,99154.53
2023-04-14T04:40:38.739Z,99152.02
2023-04-14T04:43:13.958Z,99152.88
2023-04-14T04:45:58.867Z,99158.20
2023-04-14T04:48:27.695Z,99158.20
2023-04-14T04:50:55.796Z,99158.27
2023-04-14T04:53:23.832Z,99159.73
2023-04-14T04:55:53.964Z,99162.74
2023-04-14T04:58:23.620Z,99163.03
2023-04-14T05:00:54.524Z,99163.01
2023-04-14T05:03:24.222Z,99161.77
2023-04-14T05:05:52.369Z,99160.55
2023-04-14T05:08:20.320Z,99155.73
2023-04-14T05:10:48.823Z,99159.54
2023-04-14T05:13:16.870Z,99160.47
2023-04-14T05:15:46.602Z,99162.92
2023-04-14T05:18:15.739Z,99165.11
2023-04-14T05:20:44.090Z,99166.12
2023-04-14T05:23:13.628Z,99172.23
2023-04-14T05:25:42.169Z,99180.50
2023-04-14T05:28:14.718Z,99180.98
2023-04-14T05:30:43.107Z,99185.27
2023-04-14T05:33:14.648Z,99183.91
2023-04-14T05:35:47.461Z,99188.23
2023-04-14T05:38:15.865Z,99190.23
2023-04-14T05:40:45.600Z,99190.90
2023-04-14T05:43:14.548Z,99187.08
2023-04-14T05:45:42.419Z,99194.08
2023-04-14T05:48:10.395Z,99196.47
2023-04-14T05:50:38.501Z,99196.39
2023-04-14T05:53:06.688Z,99195.48
2023-04-14T05:55:35.060Z,99197.83
2023-04-14T05:58:03.049Z,99204.25
2023-04-14T06:00:31.169Z,99205.42
2023-04-14T06:03:19.190Z,99208.48
2023-04-14T06:05:50.851Z,99211.02
2023-04-14T06:08:19.131Z,99208.84
2023-04-14T06:10:47.303Z,99215.73
2023-04-14T06:13:16.390Z,99210.31
2023-04-14T06:15:44.425Z,99214.64
2023-04-14T06:18:17.174Z,99214.71
2023-04-14T06:20:46.009Z,99218.86
2023-04-14T06:23:14.779Z,99223.11
2023-04-14T06:25:42.700Z,99225.73
2023-04-14T06:28:12.872Z,99226.63
2023-04-14T06:30:41.184Z,99234.95
2023-04-14T06:33:09.239Z,99235.78
2023-04-14T06:35:38.244Z,99238.87
2023-04-14T06:38:07.551Z,99243.71
2023-04-14T06:40:35.567Z,99248.13
2023-04-14T06:43:03.603Z,99246.31
2023-04-14T06:45:33.469Z,99246.70
2023-04-14T06:48:01.679Z,99246.02
2023-04-14T06:50:35.438Z,99246.90
2023-04-14T06:53:05.930Z,99249.59
2023-04-14T06:55:35.382Z,99252.17
2023-04-14T06:58:04.128Z,99252.17
2023-04-14T07:00:33.840Z,99250.45
2023-04-14T07:03:02.299Z,99255.27
2023-04-14T07:05:30.663Z,99251.30
2023-04-14T07:07:58.591Z,99257.21
2023-04-14T07:10:26.608Z,99257.85
2023-04-14T07:12:54.960Z,99262.48
2023-04-14T07:15:24.581Z,99262.86
2023-04-14T07:17:54.081Z,99264.89
2023-04-14T07:20:22.373Z,99267.75
2023-04-14T07:22:51.947Z,99269.77
2023-04-14T07:25:20.515Z,99271.15
2023-04-14T07:28:02.145Z,99275.94
2023-04-14T07:30:32.532Z,99280.38
2023-04-14T07:33:02.623Z,99279.44
2023-04-14T07:35:30.845Z,99273.20
2023-04-14T07:37:58.817Z,99277.14
2023-04-14T07:40:28.676Z,99273.33
2023-04-14T07:42:58.087Z,99275.88
2023-04-14T07:45:26.392Z,99279.69
2023-04-14T07:47:57.095Z,99274.16
2023-04-14T07:50:26.622Z,99273.64
2023-04-14T07:52:55.396Z,99271.47
2023-04-14T07:55:24.982Z,99271.41
2023-04-14T07:57:58.591Z,99272.73
2023-04-14T08:00:29.306Z,99271.34
2023-04-14T08:03:02.344Z,99269.55
2023-04-14T08:05:38.668Z,99270.01
2023-04-14T08:08:08.721Z,99267.56
2023-04-14T08:10:40.670Z,99268.07
2023-04-14T08:13:09.353Z,99274.58
2023-04-14T08:15:37.351Z,99276.89
2023-04-14T08:18:07.173Z,99283.52
2023-04-14T08:20:38.561Z,99285.61
2023-04-14T08:23:07.317Z,99284.27
2023-04-14T08:25:36.732Z,99290.50
2023-04-14T08:28:05.278Z,99291.46
2023-04-14T08:30:43.614Z,99296.96
2023-04-14T08:33:18.328Z,99300.70
2023-04-14T08:35:46.871Z,99304.83
2023-04-14T08:38:30.623Z,99308.07
2023-04-14T08:41:02.113Z,99309.47
2023-04-14T08:43:30.161Z,99314.09
2023-04-14T08:46:02.936Z,99315.21
2023-04-14T08:48:32.016Z,99315.11
2023-04-14T08:51:01.487Z,99310.73
2023-04-14T08:53:32.047Z,99312.91
2023-04-14T08:56:01.763Z,99315.55
2023-04-14T08:58:29.955Z,99315.68
2023-04-14T09:01:01.183Z,99319.27
2023-04-14T09:03:30.547Z,99315.90
2023-04-14T09:05:58.954Z,99314.91
2023-04-14T09:08:27.941Z,99313.55
2023-04-14T09:10:59.737Z,99313.31
2023-04-14T09:13:30.032Z,99309.38
2023-04-14T09:16:00.207Z,99312.58
2023-04-14T09:18:28.875Z,99308.30
2023-04-14T09:21:50.063Z,99311.76
2023-04-14T09:23:47.344Z,99303.58
2023-04-14T09:26:16.430Z,99304.98
2023-04-14T09:28:44.521Z,99305.77
2023-04-14T09:31:12.929Z,99307.34
2023-04-14T09:33:46.110Z,99305.89
2023-04-14T09:36:18.418Z,99305.19
2023-04-14T09:38:47.036Z,99311.14
2023-04-14T09:41:18.730Z,99310.75
2023-04-14T09:43:47.141Z,99315.30
2023-04-14T09:46:15.841Z,99315.37
2023-04-14T09:48:54.290Z,99310.36
2023-04-14T09:51:27.911Z,99310.09
2023-04-14T09:54:01.655Z,99309.11
2023-04-14T09:56:30.150Z,99313.88
2023-04-14T09:59:02.440Z,99317.58
2023-04-14T10:01:32.419Z,99321.67
2023-04-14T10:04:02.398Z,99323.23
2023-04-14T10:06:32.363Z,99330.00
2023-04-14T10:09:01.662Z,99329.29
2023-04-14T10:11:32.997Z,99334.08
2023-04-14T10:14:02.700Z,99339.96
2023-04-14T10:16:31.845Z,99347.02
2023-04-14T10:19:00.496Z,99352.23
2023-04-14T10:21:34.082Z,99361.48
2023-04-14T10:24:03.373Z,99358.95
2023-04-14T10:26:32.344Z,99359.13
2023-04-14T10:29:02.982Z,99359.09
2023-04-14T10:31:35.279Z,99359.86
2023-04-14T10:34:11.348Z,99362.58
2023-04-14T10:36:40.432Z,99366.39
2023-04-14T10:39:10.466Z,99371.73
2023-04-14T10:41:43.849Z,99375.61
2023-04-14T10:44:35.251Z,99375.52
2023-04-14T10:47:05.398Z,99387.73
2023-04-14T10:49:38.456Z,99387.35
2023-04-14T10:52:06.838Z,99387.84
2023-04-14T10:54:48.501Z,99393.27
2023-04-14T10:57:17.764Z,99397.25
2023-04-14T10:59:46.212Z,99400.66
2023-04-14T11:02:30.862Z,99401.14
2023-04-14T11:05:06.814Z,99404.41
2023-04-14T11:07:45.526Z,99407.54
2023-04-14T11:10:19.603Z,99410.02
2023-04-14T11:12:48.576Z,99410.20
2023-04-14T11:15:21.577Z,99410.14
2023-04-14T11:17:55.226Z,99412.25
2023-04-14T11:20:23.545Z,99412.31
2023-04-14T11:22:54.946Z,99408.61
2023-04-14T11:25:24.839Z,99406.53
2023-04-14T11:27:53.517Z,99407.59
2023-04-14T11:30:23.215Z,99406.53
2023-04-14T11:32:52.458Z,99404.98
2023-04-14T11:35:20.987Z,99405.33
2023-04-14T11:37:51.334Z,99405.23
2023-04-14T11:40:19.586Z,99406.90
2023-04-14T11:42:53.699Z,99408.92
2023-04-14T11:45:22.397Z,99403.81
2023-04-14T11:48:00.358Z,99403.33
2023-04-14T11:50:42.925Z,99408.33
2023-04-14T11:53:12.091Z,99410.70
2023-04-14T11:55:46.980Z,99409.70
2023-04-14T11:58:15.890Z,99412.83
2023-04-14T12:00:44.014Z,99411.92
2023-04-14T12:03:33.342Z,99413.58
2023-04-14T12:06:03.399Z,99407.09
2023-04-14T12:08:32.251Z,99406.05
2023-04-14T12:11:16.464Z,99402.25
2023-04-14T12:13:45.055Z,99404.97
2023-04-14T12:16:14.241Z,99403.17
2023-04-14T12:18:47.240Z,99410.06
2023-04-14T12:21:17.269Z,99407.31
2023-04-14T12:23:45.466Z,99412.06
2023-04-14T12:26:14.386Z,99411.56
2023-04-14T12:28:42.797Z,99406.63
2023-04-14T12:31:11.007Z,99406.67
2023-04-14T12:33:39.904Z,99400.42
2023-04-14T12:36:10.286Z,99407.64
2023-04-14T12:38:38.381Z,99406.65
2023-04-14T12:41:06.826Z,99403.48
2023-04-14T12:43:35.682Z,99405.67
2023-04-14T12:46:06.391Z,99398.25
2023-04-14T12:48:43.759Z,99398.23
2023-04-14T12:51:13.047Z,99392.38
2023-04-14T12:53:41.653Z,99397.59
2023-04-14T12:56:10.720Z,99394.20
2023-04-14T12:58:42.622Z,99400.98
2023-04-14T13:01:11.063Z,99401.91
2023-04-14T13:03:47.742Z,99405.45
2023-04-14T13:06:16.930Z,99401.02
2023-04-14T13:08:46.371Z,99412.27
2023-04-14T13:11:14.974Z,99409.80
2023-04-14T13:13:45.643Z,99411.14
2023-04-14T13:16:17.048Z,99407.52
2023-04-14T13:18:47.153Z,99404.40
2023-04-14T13:21:20.661Z,99409.66
2023-04-14T13:23:48.960Z,99411.71
2023-04-14T13:26:17.044Z,99412.67
2023-04-14T13:28:51.844Z,99413.95
2023-04-14T13:31:20.905Z,99412.43
2023-04-14T13:33:51.245Z,99412.02
2023-04-14T13:36:19.686Z,99412.04
2023-04-14T13:38:48.495Z,99411.82
2023-04-14T13:41:19.663Z,99414.98
2023-04-14T13:43:48.662Z,99414.59
2023-04-14T13:46:17.862Z,99423.05
2023-04-14T13:48:48.276Z,99428.23
2023-04-14T13:51:16.444Z,99427.02
2023-04-14T13:53:44.428Z,99428.66
2023-04-14T13:56:13.372Z,99420.89
2023-04-14T13:58:41.887Z,99421.77
2023-04-14T14:01:11.504Z,99432.63
2023-04-14T14:03:44.696Z,99432.09
2023-04-14T14:06:13.551Z,99431.94
2023-04-14T14:08:42.501Z,99431.22
2023-04-14T14:11:16.237Z,99432.98
2023-04-14T14:13:44.547Z,99432.90
2023-04-14T14:16:15.990Z,99436.02
2023-04-14T14:18:47.385Z,99441.27
2023-04-14T14:21:15.911Z,99439.56
2023-04-14T14:23:43.821Z,99443.39
2023-04-14T14:26:14.157Z,99435.14
2023-04-14T14:28:43.012Z,99437.30
2023-04-14T14:31:11.184Z,99437.19
2023-04-14T14:33:40.381Z,99439.56
2023-04-14T14:36:08.854Z,99440.56
2023-04-14T14:38:37.315Z,99441.38
2023-04-14T14:41:05.637Z,99445.57
2023-04-14T14:43:33.599Z,99448.37
2023-04-14T14:46:04.927Z,99447.02
2023-04-14T14:48:33.383Z,99448.60
2023-04-14T14:51:03.774Z,99455.55
2023-04-14T14:53:32.560Z,99455.10
2023-04-14T14:56:00.556Z,99458.58
2023-04-14T14:58:29.724Z,99470.69
2023-04-14T15:00:59.030Z,99468.91
2023-04-14T15:03:29.355Z,99470.03
2023-04-14T15:05:58.247Z,99471.23
2023-04-14T15:08:26.441Z,99488.20
2023-04-14T15:10:54.406Z,99488.81
2023-04-14T15:13:24.054Z,99489.60
2023-04-14T15:15:52.307Z,99492.50
2023-04-14T15:18:21.233Z,99498.77
2023-04-14T15:20:53.308Z,99497.80
2023-04-14T15:23:21.315Z,99498.52
2023-04-14T15:25:49.501Z,99500.92
2023-04-14T15:28:17.522Z,99511.66
2023-04-14T15:30:46.141Z,99510.91
2023-04-14T15:33:15.512Z,99517.89
2023-04-14T15:35:47.549Z,99520.23
2023-04-14T15:38:16.507Z,99524.85
2023-04-14T15:40:44.408Z,99526.43
2023-04-14T15:43:12.982Z,99531.05
2023-04-14T15:45:41.896Z,99530.92
2023-04-14T15:48:09.907Z,99534.13
2023-04-14T15:58:27.470Z,99547.35
2023-04-14T16:00:55.859Z,99549.88
2023-04-14T16:03:25.172Z,99548.47
2023-04-14T16:06:02.888Z,99553.95
2023-04-14T16:08:32.219Z,99559.03
2023-04-14T16:11:00.247Z,99565.16
2023-04-14T16:13:30.789Z,99571.12
2023-04-14T16:16:00.501Z,99573.86
2023-04-14T16:18:28.460Z,99578.43
2023-04-14T16:20:56.407Z,99578.96
2023-04-14T16:23:24.654Z,99579.92
2023-04-14T16:25:52.601Z,99588.81
2023-04-14T16:28:23.001Z,99592.63
2023-04-14T16:30:51.358Z,99594.09
2023-04-14T16:33:22.591Z,99599.23
2023-04-14T16:35:50.779Z,99601.27
2023-04-14T16:38:21.086Z,99606.45
2023-04-14T16:40:58.708Z,99607.58
2023-04-14T16:43:30.098Z,99608.27
2023-04-14T16:46:04.311Z,99608.32
2023-04-14T16:48:35.114Z,99608.20
2023-04-14T16:51:04.666Z,99616.08
2023-04-14T16:53:32.872Z,99612.03
2023-04-14T16:56:05.567Z,99617.84
2023-04-14T16:58:33.867Z,99622.74
2023-04-14T17:01:02.348Z,99626.07
2023-04-14T17:03:31.241Z,99627.68
2023-04-14T17:06:01.313Z,99628.27
2023-04-14T17:08:30.830Z,99629.52
2023-04-14T17:10:59.348Z,99631.80
2023-04-14T17:13:28.138Z,99636.20
2023-04-14T17:16:07.745Z,99638.30
2023-04-14T17:18:48.379Z,99643.73
2023-04-14T17:21:17.841Z,99644.38
2023-04-14T17:23:55.746Z,99647.54
2023-04-14T17:26:24.966Z,99649.17
2023-04-14T17:28:53.014Z,99653.54
2023-04-14T17:31:21.280Z,99652.92
2023-04-14T17:33:49.776Z,99654.11
2023-04-14T17:36:18.379Z,99655.27
2023-04-14T17:38:47.275Z,99647.84
2023-04-14T17:41:16.140Z,99654.14
2023-04-14T17:43:48.556Z,99655.39
2023-04-14T17:46:17.743Z,99660.36
2023-04-14T17:48:46.493Z,99662.23
2023-04-14T17:51:14.658Z,99661.85
2023-04-14T17:53:47.291Z,99666.98
2023-04-14T17:56:16.327Z,99671.63
2023-04-14T17:58:45.333Z,99674.15
2023-04-14T18:01:13.363Z,99670.45
2023-04-14T18:03:42.543Z,99676.05
2023-04-14T18:06:11.139Z,99675.25
2023-04-14T18:08:43.413Z,99673.96
2023-04-14T18:11:13.000Z,99675.86
2023-04-14T18:13:40.942Z,99675.23
2023-04-14T18:16:10.566Z,99676.73
2023-04-14T18:18:46.394Z,99674.20
2023-04-14T18:21:14.795Z,99673.23
2023-04-14T18:23:44.323Z,99677.77
2023-04-14T18:28:44.212Z,99679.79
2023-04-14T18:31:14.173Z,99684.42
2023-04-14T18:34:05.259Z,99681.17
2023-04-14T18:36:33.485Z,99685.90
2023-04-14T18:39:01.550Z,99688.73
2023-04-14T18:41:35.204Z,99693.02
2023-04-14T18:44:04.398Z,99688.58
2023-04-14T18:46:35.441Z,99691.61
2023-04-14T18:49:04.084Z,99689.77
2023-04-14T18:51:33.196Z,99687.71
2023-04-14T18:54:01.309Z,99689.30
2023-04-14T18:56:30.475Z,99687.06
2023-04-14T18:58:58.551Z,99685.86
2023-04-14T19:01:27.317Z,99683.65
2023-04-14T19:03:56.665Z,99683.48
2023-04-14T19:06:25.051Z,99684.17
2023-04-14T19:08:53.059Z,99680.02
2023-04-14T19:11:25.454Z,99680.71
2023-04-14T19:13:55.311Z,99675.88
2023-04-14T19:16:23.391Z,99670.35
2023-04-14T19:18:52.431Z,99669.42
2023-04-14T19:21:24.239Z,99670.45
2023-04-14T19:23:54.672Z,99672.58
2023-04-14T19:26:24.036Z,99675.02
2023-04-14T19:28:53.567Z,99673.06
2023-04-14T19:31:22.302Z,99671.83
2023-04-14T19:33:50.358Z,99669.33
2023-04-14T19:36:18.578Z,99673.92
2023-04-14T19:38:46.691Z,99675.20
2023-04-14T19:41:15.742Z,99678.45
2023-04-14T19:43:43.978Z,99678.60
2023-04-14T19:46:13.528Z,99679.64
2023-04-14T19:48:42.686Z,99683.41
2023-04-14T19:51:11.543Z,99684.77
2023-04-14T19:53:39.747Z,99687.97
2023-04-14T19:56:08.859Z,99686.23
2023-04-14T19:58:36.933Z,99687.41
2023-04-14T20:01:06.041Z,99690.65
2023-04-14T20:03:35.824Z,99698.57
2023-04-14T20:06:04.467Z,99700.92
2023-04-14T20:08:34.675Z,99706.67
2023-04-14T20:11:04.890Z,99706.15
2023-04-14T20:13:35.523Z,99706.10
2023-04-14T20:16:10.475Z,99703.33
2023-04-14T20:18:58.415Z,99705.19
2023-04-14T20:21:27.392Z,99707.96
2023-04-14T20:23:55.417Z,99705.73
2023-04-14T20:26:23.498Z,99708.75
2023-04-14T20:28:51.663Z,99710.18
2023-04-14T20:31:19.905Z,99711.88
2023-04-14T20:33:51.068Z,99714.19
2023-04-14T20:36:19.113Z,99711.41
2023-04-14T20:38:47.171Z,99711.95
2023-04-14T20:41:19.332Z,99713.36
2023-04-14T20:43:47.945Z,99717.82
2023-04-14T20:46:16.351Z,99726.13
2023-04-14T20:48:49.150Z,99726.87
2023-04-14T20:51:18.550Z,99728.64
2023-04-14T20:53:46.659Z,99730.52
2023-04-14T20:56:19.947Z,99735.59
2023-04-14T20:58:49.470Z,99738.56
2023-04-14T21:01:17.507Z,99738.75
2023-04-14T21:03:46.822Z,99734.11
2023-04-14T21:06:16.276Z,99736.17
2023-04-14T21:08:44.362Z,99740.19
2023-04-14T21:11:15.870Z,99738.21
2023-04-14T21:15:29.377Z,99740.06
2023-04-14T21:16:37.350Z,99738.70
2023-04-14T21:19:06.440Z,99741.88
2023-04-14T21:21:42.763Z,99748.09
2023-04-14T21:24:10.954Z,99757.46
2023-04-14T21:26:39.000Z,99762.66
2023-04-14T21:29:06.948Z,99759.87
2023-04-14T21:31:35.051Z,99767.10
2023-04-14T21:34:04.541Z,99772.95
2023-04-14T21:36:34.804Z,99780.67
2023-04-14T21:39:04.548Z,99783.61
2023-04-14T21:41:32.853Z,99786.91
2023-04-14T21:44:01.890Z,99795.35
2023-04-14T21:46:30.788Z,99799.02
2023-04-14T21:48:58.799Z,99800.52
2023-04-14T21:51:27.746Z,99806.30
2023-04-14T21:53:57.227Z,99812.33
2023-04-14T21:56:25.200Z,99814.10
2023-04-14T21:58:53.404Z,99815.44
2023-04-14T22:01:21.972Z,99822.76
2023-04-14T22:03:52.031Z,99833.73
2023-04-14T22:06:21.345Z,99836.85
2023-04-14T22:08:53.615Z,99840.73
2023-04-14T22:11:22.268Z,99845.63
2023-04-14T22:13:50.358Z,99851.85
2023-04-14T22:16:18.510Z,99852.59
2023-04-14T22:18:47.477Z,99852.45
2023-04-14T22:21:15.903Z,99855.27
2023-04-14T22:23:43.936Z,99853.00
2023-04-14T22:26:13.912Z,99856.73
2023-04-14T22:28:42.580Z,99856.77
2023-04-14T22:31:10.573Z,99856.64
2023-04-14T22:33:40.413Z,99859.55
2023-04-14T22:36:09.730Z,99854.23
2023-04-14T22:38:37.750Z,99861.89
2023-04-14T22:41:06.890Z,99860.77
2023-04-14T22:43:34.886Z,99861.23
2023-04-14T22:46:03.214Z,99864.44
2023-04-14T22:48:32.094Z,99861.11
2023-04-14T22:51:00.493Z,99864.79
2023-04-14T22:53:28.619Z,99866.95
2023-04-14T22:55:58.345Z,99864.35
2023-04-14T22:58:27.333Z,99860.28
2023-04-14T23:00:57.841Z,99866.39
2023-04-14T23:03:26.457Z,99859.97
2023-04-14T23:05:55.216Z,99857.08
2023-04-14T23:08:28.106Z,99850.86
2023-04-14T23:10:56.272Z,99851.06
2023-04-14T23:13:26.322Z,99851.52
2023-04-14T23:15:55.210Z,99852.14
2023-04-14T23:18:25.350Z,99852.23
2023-04-14T23:20:53.632Z,99855.29
2023-04-14T23:23:21.633Z,99853.14
2023-04-14T23:25:50.197Z,99857.19
2023-04-14T23:28:21.461Z,99855.53
2023-04-14T23:30:51.102Z,99860.84
2023-04-14T23:33:19.770Z,99865.20
2023-04-14T23:35:48.758Z,99866.60
2023-04-14T23:38:18.347Z,99869.48
2023-04-14T23:40:50.123Z,99866.70
2023-04-14T23:43:19.100Z,99865.06
2023-04-14T23:45:48.068Z,99866.82
2023-04-14T23:48:18.971Z,99859.92
2023-04-14T23:50:59.743Z,99858.20
2023-04-14T23:53:35.457Z,99853.20
2023-04-14T23:56:04.331Z,99854.50
2023-04-14T23:58:32.583Z,99852.64
